sensor_id;sensor_type;location;lat;lon;timestamp;pressure;altitude;pressure_sealevel;temperature;humidity
13594;BME280;6449;47.666;9.160;2023-04-29T00:03:23;96618.06;;;13.30;100.00
13594;BME280;6449;47.666;9.160;2023-04-29T00:08:21;96626.38;;;13.35;100.00
13594;BME280;6449;47.666;9.160;2023-04-29T00:13:15;96627.19;;;13.26;100.00
13594;BME280;6449;47.666;9.160;2023-04-29T00:18:09;96621.09;;;13.25;100.00
13594;BME280;6449;47.666;9.160;2023-04-29T00:23:02;96623.31;;;13.30;100.00
13594;BME280;6449;47.666;9.160;2023-04-29T00:27:57;96631.34;;;13.19;100.00
13594;BME280;6449;47.666;9.160;2023-04-29T00:32:53;96628.72;;;13.19;100.00
13594;BME280;6449;47.666;9.160;2023-04-29T00:37:48;96620.28;;;13.34;100.00
13594;BME280;6449;47.666;9.160;2023-04-29T00:42:42;96612.22;;;13.36;100.00
13594;BME280;6449;47.666;9.160;2023-04-29T00:47:37;96611.66;;;13.42;100.00
13594;BME280;6449;47.666;9.160;2023-04-29T00:52:31;96621.25;;;13.33;100.00
13594;BME280;6449;47.666;9.160;2023-04-29T00:57:25;96623.63;;;13.27;100.00
13594;BME280;6449;47.666;9.160;2023-04-29T01:17:54;96618.06;;;13.30;100.00
13594;BME280;6449;47.666;9.160;2023-04-29T01:22:48;96626.63;;;13.13;100.00
13594;BME280;6449;47.666;9.160;2023-04-29T01:27:51;96611.41;;;13.16;100.00
13594;BME280;6449;47.666;9.160;2023-04-29T01:32:57;96613.91;;;13.18;100.00
13594;BME280;6449;47.666;9.160;2023-04-29T02:18:44;96618.19;;;13.19;100.00
13594;BME280;6449;47.666;9.160;2023-04-29T02:23:37;96610.56;;;13.16;100.00
13594;BME280;6449;47.666;9.160;2023-04-29T02:28:31;96618.75;;;13.13;100.00
13594;BME280;6449;47.666;9.160;2023-04-29T02:33:25;96617.50;;;13.17;100.00
13594;BME280;6449;47.666;9.160;2023-04-29T02:38:20;96605.03;;;13.19;100.00
13594;BME280;6449;47.666;9.160;2023-04-29T02:43:13;96598.25;;;13.16;100.00
13594;BME280;6449;47.666;9.160;2023-04-29T02:48:07;96596.44;;;13.17;100.00
13594;BME280;6449;47.666;9.160;2023-04-29T02:53:00;96588.69;;;13.05;100.00
13594;BME280;6449;47.666;9.160;2023-04-29T03:03:02;96601.56;;;13.08;100.00
13594;BME280;6449;47.666;9.160;2023-04-29T03:18:36;96597.84;;;13.01;100.00
13594;BME280;6449;47.666;9.160;2023-04-29T03:23:29;96595.19;;;12.92;100.00
13594;BME280;6449;47.666;9.160;2023-04-29T03:28:22;96594.09;;;12.84;100.00
13594;BME280;6449;47.666;9.160;2023-04-29T03:33:16;96598.63;;;12.82;100.00
13594;BME280;6449;47.666;9.160;2023-04-29T03:38:11;96593.25;;;12.84;100.00
13594;BME280;6449;47.666;9.160;2023-04-29T03:43:04;96597.56;;;12.85;100.00
13594;BME280;6449;47.666;9.160;2023-04-29T03:47:59;96598.94;;;12.89;100.00
13594;BME280;6449;47.666;9.160;2023-04-29T03:52:53;96590.75;;;12.92;100.00
13594;BME280;6449;47.666;9.160;2023-04-29T03:57:48;96587.84;;;12.85;100.00
13594;BME280;6449;47.666;9.160;2023-04-29T04:02:41;96582.03;;;12.82;100.00
13594;BME280;6449;47.666;9.160;2023-04-29T04:07:36;96581.88;;;12.83;100.00
13594;BME280;6449;47.666;9.160;2023-04-29T04:12:29;96572.34;;;12.82;100.00
13594;BME280;6449;47.666;9.160;2023-04-29T04:17:24;96583.69;;;12.73;100.00
13594;BME280;6449;47.666;9.160;2023-04-29T04:22:17;96591.72;;;12.52;100.00
13594;BME280;6449;47.666;9.160;2023-04-29T04:27:11;96594.44;;;12.51;100.00
13594;BME280;6449;47.666;9.160;2023-04-29T04:32:05;96594.03;;;12.46;100.00
13594;BME280;6449;47.666;9.160;2023-04-29T04:37:00;96601.63;;;12.39;100.00
13594;BME280;6449;47.666;9.160;2023-04-29T04:41:53;96607.16;;;12.46;100.00
13594;BME280;6449;47.666;9.160;2023-04-29T04:46:46;96614.38;;;12.44;100.00
13594;BME280;6449;47.666;9.160;2023-04-29T04:51:44;96626.41;;;12.37;100.00
13594;BME280;6449;47.666;9.160;2023-04-29T04:56:39;96634.28;;;12.37;100.00
13594;BME280;6449;47.666;9.160;2023-04-29T05:01:32;96626.44;;;12.56;100.00
13594;BME280;6449;47.666;9.160;2023-04-29T05:06:26;96631.56;;;12.57;100.00
13594;BME280;6449;47.666;9.160;2023-04-29T05:11:20;96633.50;;;12.65;100.00
13594;BME280;6449;47.666;9.160;2023-04-29T05:16:15;96638.00;;;12.84;100.00
13594;BME280;6449;47.666;9.160;2023-04-29T05:21:09;96647.53;;;13.04;100.00
13594;BME280;6449;47.666;9.160;2023-04-29T05:26:03;96653.22;;;13.09;100.00
13594;BME280;6449;47.666;9.160;2023-04-29T05:30:56;96662.28;;;13.26;100.00
13594;BME280;6449;47.666;9.160;2023-04-29T05:35:51;96670.03;;;13.38;100.00
13594;BME280;6449;47.666;9.160;2023-04-29T05:40:47;96669.31;;;13.45;100.00
13594;BME280;6449;47.666;9.160;2023-04-29T05:45:45;96673.34;;;13.49;100.00
13594;BME280;6449;47.666;9.160;2023-04-29T05:50:38;96672.78;;;13.46;100.00
13594;BME280;6449;47.666;9.160;2023-04-29T05:55:33;96676.66;;;13.42;100.00
13594;BME280;6449;47.666;9.160;2023-04-29T06:00:27;96682.66;;;13.44;100.00
13594;BME280;6449;47.666;9.160;2023-04-29T06:05:20;96682.91;;;13.41;100.00
13594;BME280;6449;47.666;9.160;2023-04-29T06:10:14;96688.16;;;13.31;100.00
13594;BME280;6449;47.666;9.160;2023-04-29T06:15:10;96690.53;;;13.24;100.00
13594;BME280;6449;47.666;9.160;2023-04-29T06:20:04;96694.28;;;13.22;100.00
13594;BME280;6449;47.666;9.160;2023-04-29T06:24:58;96701.16;;;13.03;100.00
13594;BME280;6449;47.666;9.160;2023-04-29T06:29:51;96700.91;;;13.26;100.00
13594;BME280;6449;47.666;9.160;2023-04-29T06:34:47;96702.72;;;13.35;100.00
13594;BME280;6449;47.666;9.160;2023-04-29T06:39:41;96701.75;;;13.36;100.00
13594;BME280;6449;47.666;9.160;2023-04-29T06:44:34;96699.84;;;13.38;100.00
13594;BME280;6449;47.666;9.160;2023-04-29T06:49:27;96701.50;;;13.49;100.00
13594;BME280;6449;47.666;9.160;2023-04-29T06:54:22;96699.94;;;13.66;100.00
13594;BME280;6449;47.666;9.160;2023-04-29T06:59:16;96704.34;;;13.84;100.00
13594;BME280;6449;47.666;9.160;2023-04-29T07:04:09;96690.03;;;14.06;100.00
13594;BME280;6449;47.666;9.160;2023-04-29T07:09:03;96692.59;;;14.26;100.00
13594;BME280;6449;47.666;9.160;2023-04-29T07:13:57;96682.66;;;14.57;100.00
13594;BME280;6449;47.666;9.160;2023-04-29T07:18:51;96686.91;;;14.67;100.00
13594;BME280;6449;47.666;9.160;2023-04-29T07:23:44;96689.56;;;14.85;100.00
13594;BME280;6449;47.666;9.160;2023-04-29T07:28:39;96682.75;;;15.28;100.00
13594;BME280;6449;47.666;9.160;2023-04-29T07:33:35;96686.16;;;15.56;100.00
13594;BME280;6449;47.666;9.160;2023-04-29T07:38:28;96691.72;;;15.89;100.00
13594;BME280;6449;47.666;9.160;2023-04-29T07:43:22;96696.94;;;16.24;100.00
13594;BME280;6449;47.666;9.160;2023-04-29T07:48:15;96713.28;;;16.28;100.00
13594;BME280;6449;47.666;9.160;2023-04-29T07:53:10;96712.16;;;16.65;100.00
13594;BME280;6449;47.666;9.160;2023-04-29T07:58:03;96720.38;;;16.80;100.00
13594;BME280;6449;47.666;9.160;2023-04-29T08:02:59;96718.13;;;17.01;100.00
13594;BME280;6449;47.666;9.160;2023-04-29T08:07:52;96727.91;;;17.00;100.00
13594;BME280;6449;47.666;9.160;2023-04-29T08:12:47;96736.66;;;17.01;100.00
13594;BME280;6449;47.666;9.160;2023-04-29T08:17:41;96747.66;;;17.31;100.00
13594;BME280;6449;47.666;9.160;2023-04-29T08:22:34;96750.22;;;16.98;100.00
13594;BME280;6449;47.666;9.160;2023-04-29T08:27:28;96738.16;;;17.03;100.00
13594;BME280;6449;47.666;9.160;2023-04-29T08:32:22;96750.84;;;17.26;100.00
13594;BME280;6449;47.666;9.160;2023-04-29T08:37:16;96756.44;;;17.23;100.00
13594;BME280;6449;47.666;9.160;2023-04-29T08:42:10;96747.28;;;17.01;100.00
13594;BME280;6449;47.666;9.160;2023-04-29T08:47:04;96742.75;;;17.52;100.00
13594;BME280;6449;47.666;9.160;2023-04-29T08:51:59;96751.63;;;18.01;100.00
13594;BME280;6449;47.666;9.160;2023-04-29T08:56:55;96757.72;;;18.26;100.00
13594;BME280;6449;47.666;9.160;2023-04-29T09:01:52;96771.50;;;18.22;100.00
13594;BME280;6449;47.666;9.160;2023-04-29T09:06:47;96770.16;;;18.26;100.00
13594;BME280;6449;47.666;9.160;2023-04-29T09:11:42;96759.72;;;17.92;100.00
13594;BME280;6449;47.666;9.160;2023-04-29T09:16:35;96752.41;;;18.35;100.00
13594;BME280;6449;47.666;9.160;2023-04-29T09:21:30;96758.66;;;18.58;100.00
13594;BME280;6449;47.666;9.160;2023-04-29T09:26:24;96780.88;;;18.81;100.00
13594;BME280;6449;47.666;9.160;2023-04-29T09:31:27;96804.78;;;18.81;100.00
13594;BME280;6449;47.666;9.160;2023-04-29T09:36:42;96807.03;;;19.01;100.00
13594;BME280;6449;47.666;9.160;2023-04-29T09:41:39;96803.34;;;19.18;100.00
13594;BME280;6449;47.666;9.160;2023-04-29T09:46:35;96804.69;;;19.14;100.00
13594;BME280;6449;47.666;9.160;2023-04-29T09:51:29;96809.78;;;18.52;100.00
13594;BME280;6449;47.666;9.160;2023-04-29T09:56:24;96811.44;;;18.37;100.00
13594;BME280;6449;47.666;9.160;2023-04-29T10:01:21;96768.94;;;18.61;100.00
13594;BME280;6449;47.666;9.160;2023-04-29T10:06:17;96789.88;;;19.11;100.00
13594;BME280;6449;47.666;9.160;2023-04-29T10:11:12;96813.38;;;19.39;100.00
13594;BME280;6449;47.666;9.160;2023-04-29T10:16:16;96836.13;;;19.42;100.00
13594;BME280;6449;47.666;9.160;2023-04-29T10:21:13;96814.59;;;19.68;100.00
13594;BME280;6449;47.666;9.160;2023-04-29T10:26:12;96820.50;;;19.78;100.00
13594;BME280;6449;47.666;9.160;2023-04-29T10:31:08;96813.97;;;19.88;100.00
13594;BME280;6449;47.666;9.160;2023-04-29T10:36:04;96812.13;;;20.12;100.00
13594;BME280;6449;47.666;9.160;2023-04-29T10:41:02;96792.84;;;20.10;100.00
13594;BME280;6449;47.666;9.160;2023-04-29T10:46:19;96791.66;;;20.12;100.00
13594;BME280;6449;47.666;9.160;2023-04-29T10:51:27;96795.88;;;20.45;100.00
13594;BME280;6449;47.666;9.160;2023-04-29T10:56:36;96801.50;;;20.50;100.00
13594;BME280;6449;47.666;9.160;2023-04-29T11:01:48;96794.03;;;20.45;100.00
13594;BME280;6449;47.666;9.160;2023-04-29T11:06:51;96798.16;;;20.85;100.00
13594;BME280;6449;47.666;9.160;2023-04-29T11:11:55;96801.28;;;21.04;100.00
13594;BME280;6449;47.666;9.160;2023-04-29T11:16:57;96777.19;;;21.27;100.00
13594;BME280;6449;47.666;9.160;2023-04-29T11:22:14;96785.09;;;21.50;100.00
13594;BME280;6449;47.666;9.160;2023-04-29T11:27:18;96774.53;;;21.41;100.00
13594;BME280;6449;47.666;9.160;2023-04-29T11:32:19;96770.00;;;21.27;100.00
13594;BME280;6449;47.666;9.160;2023-04-29T11:37:23;96758.19;;;20.85;100.00
13594;BME280;6449;47.666;9.160;2023-04-29T11:42:20;96750.03;;;20.72;100.00
13594;BME280;6449;47.666;9.160;2023-04-29T11:52:20;96764.50;;;21.14;100.00
13594;BME280;6449;47.666;9.160;2023-04-29T11:57:13;96752.25;;;21.19;100.00
13594;BME280;6449;47.666;9.160;2023-04-29T12:02:11;96755.72;;;20.99;100.00
13594;BME280;6449;47.666;9.160;2023-04-29T12:07:09;96754.03;;;20.98;100.00
13594;BME280;6449;47.666;9.160;2023-04-29T12:12:04;96753.31;;;20.74;100.00
13594;BME280;6449;47.666;9.160;2023-04-29T12:16:59;96760.22;;;20.83;100.00
13594;BME280;6449;47.666;9.160;2023-04-29T12:27:03;96741.78;;;20.44;100.00
13594;BME280;6449;47.666;9.160;2023-04-29T12:31:59;96758.53;;;20.15;100.00
13594;BME280;6449;47.666;9.160;2023-04-29T12:42:00;96758.84;;;19.43;100.00
13594;BME280;6449;47.666;9.160;2023-04-29T12:47:07;96758.91;;;19.35;100.00
13594;BME280;6449;47.666;9.160;2023-04-29T12:52:01;96771.09;;;19.21;100.00
13594;BME280;6449;47.666;9.160;2023-04-29T12:56:55;96765.03;;;19.04;100.00
13594;BME280;6449;47.666;9.160;2023-04-29T13:01:48;96788.78;;;18.98;100.00
13594;BME280;6449;47.666;9.160;2023-04-29T13:11:51;96817.28;;;18.24;100.00
13594;BME280;6449;47.666;9.160;2023-04-29T13:16:44;96768.50;;;17.84;100.00
13594;BME280;6449;47.666;9.160;2023-04-29T13:21:38;96763.09;;;16.85;100.00
13594;BME280;6449;47.666;9.160;2023-04-29T13:26:31;96745.59;;;16.40;100.00
13594;BME280;6449;47.666;9.160;2023-04-29T13:31:26;96694.31;;;16.33;100.00
13594;BME280;6449;47.666;9.160;2023-04-29T13:36:19;96673.56;;;16.46;100.00
13594;BME280;6449;47.666;9.160;2023-04-29T13:41:13;96658.13;;;16.75;100.00
13594;BME280;6449;47.666;9.160;2023-04-29T13:46:08;96644.25;;;16.73;100.00
13594;BME280;6449;47.666;9.160;2023-04-29T13:51:04;96634.00;;;16.79;100.00
13594;BME280;6449;47.666;9.160;2023-04-29T13:56:01;96650.66;;;16.71;100.00
13594;BME280;6449;47.666;9.160;2023-04-29T14:00:57;96643.91;;;16.76;100.00
13594;BME280;6449;47.666;9.160;2023-04-29T14:05:53;96645.56;;;16.77;100.00
13594;BME280;6449;47.666;9.160;2023-04-29T14:10:48;96633.00;;;16.80;100.00
13594;BME280;6449;47.666;9.160;2023-04-29T14:15:42;96633.81;;;16.80;100.00
13594;BME280;6449;47.666;9.160;2023-04-29T14:20:35;96630.06;;;17.07;100.00
13594;BME280;6449;47.666;9.160;2023-04-29T14:25:28;96641.84;;;17.05;100.00
13594;BME280;6449;47.666;9.160;2023-04-29T14:30:26;96642.97;;;16.94;100.00
13594;BME280;6449;47.666;9.160;2023-04-29T14:35:19;96650.41;;;16.98;100.00
13594;BME280;6449;47.666;9.160;2023-04-29T14:40:12;96709.50;;;16.57;100.00
13594;BME280;6449;47.666;9.160;2023-04-29T14:45:07;96685.78;;;16.47;100.00
13594;BME280;6449;47.666;9.160;2023-04-29T14:50:02;96660.22;;;16.64;100.00
13594;BME280;6449;47.666;9.160;2023-04-29T14:54:56;96657.69;;;16.54;100.00
13594;BME280;6449;47.666;9.160;2023-04-29T14:59:49;96644.41;;;16.80;100.00
13594;BME280;6449;47.666;9.160;2023-04-29T15:04:42;96682.00;;;16.92;100.00
13594;BME280;6449;47.666;9.160;2023-04-29T15:09:38;96726.72;;;16.95;100.00
13594;BME280;6449;47.666;9.160;2023-04-29T15:14:32;96702.41;;;17.08;100.00
13594;BME280;6449;47.666;9.160;2023-04-29T15:19:25;96728.69;;;16.93;100.00
13594;BME280;6449;47.666;9.160;2023-04-29T15:24:19;96752.50;;;16.85;100.00
13594;BME280;6449;47.666;9.160;2023-04-29T15:29:13;96759.63;;;16.84;100.00
13594;BME280;6449;47.666;9.160;2023-04-29T15:34:07;96759.44;;;16.86;100.00
13594;BME280;6449;47.666;9.160;2023-04-29T15:39:00;96729.31;;;16.79;100.00
13594;BME280;6449;47.666;9.160;2023-04-29T15:43:56;96694.06;;;16.86;100.00
13594;BME280;6449;47.666;9.160;2023-04-29T15:48:51;96688.00;;;17.02;100.00
13594;BME280;6449;47.666;9.160;2023-04-29T15:53:44;96689.16;;;17.08;100.00
13594;BME280;6449;47.666;9.160;2023-04-29T15:58:38;96688.03;;;17.10;100.00
13594;BME280;6449;47.666;9.160;2023-04-29T16:03:32;96683.56;;;17.11;100.00
13594;BME280;6449;47.666;9.160;2023-04-29T16:08:27;96676.44;;;17.11;100.00
13594;BME280;6449;47.666;9.160;2023-04-29T16:13:20;96677.09;;;17.13;100.00
13594;BME280;6449;47.666;9.160;2023-04-29T16:18:14;96677.94;;;17.14;100.00
13594;BME280;6449;47.666;9.160;2023-04-29T16:23:08;96689.88;;;17.18;100.00
13594;BME280;6449;47.666;9.160;2023-04-29T16:28:03;96708.09;;;17.21;100.00
13594;BME280;6449;47.666;9.160;2023-04-29T16:32:56;96746.16;;;17.12;100.00
13594;BME280;6449;47.666;9.160;2023-04-29T16:37:49;96727.78;;;17.18;100.00
13594;BME280;6449;47.666;9.160;2023-04-29T16:42:44;96739.38;;;17.25;100.00
13594;BME280;6449;47.666;9.160;2023-04-29T16:47:39;96767.03;;;17.23;100.00
13594;BME280;6449;47.666;9.160;2023-04-29T16:52:33;96757.75;;;17.19;100.00
13594;BME280;6449;47.666;9.160;2023-04-29T16:57:26;96852.19;;;17.36;100.00
13594;BME280;6449;47.666;9.160;2023-04-29T17:02:20;96838.28;;;17.34;100.00
13594;BME280;6449;47.666;9.160;2023-04-29T17:07:15;96825.84;;;17.26;100.00
13594;BME280;6449;47.666;9.160;2023-04-29T17:12:10;96852.00;;;17.21;100.00
13594;BME280;6449;47.666;9.160;2023-04-29T17:17:03;96846.81;;;17.12;100.00
13594;BME280;6449;47.666;9.160;2023-04-29T17:21:57;96832.13;;;16.91;100.00
13594;BME280;6449;47.666;9.160;2023-04-29T17:26:51;96806.72;;;16.72;100.00
13594;BME280;6449;47.666;9.160;2023-04-29T17:31:45;96784.78;;;16.62;100.00
13594;BME280;6449;47.666;9.160;2023-04-29T17:36:45;96828.44;;;16.58;100.00
13594;BME280;6449;47.666;9.160;2023-04-29T17:41:39;96870.28;;;16.81;100.00
13594;BME280;6449;47.666;9.160;2023-04-29T17:46:34;96888.66;;;16.82;100.00
13594;BME280;6449;47.666;9.160;2023-04-29T17:51:28;96905.34;;;16.74;100.00
13594;BME280;6449;47.666;9.160;2023-04-29T17:56:24;96910.31;;;16.77;100.00
13594;BME280;6449;47.666;9.160;2023-04-29T18:01:20;96922.94;;;16.66;100.00
13594;BME280;6449;47.666;9.160;2023-04-29T18:06:15;96930.06;;;16.65;100.00
13594;BME280;6449;47.666;9.160;2023-04-29T18:11:09;96941.16;;;16.51;100.00
13594;BME280;6449;47.666;9.160;2023-04-29T18:16:06;96942.53;;;16.55;100.00
13594;BME280;6449;47.666;9.160;2023-04-29T18:21:00;96957.28;;;16.40;100.00
13594;BME280;6449;47.666;9.160;2023-04-29T18:31:02;96958.94;;;16.23;100.00
13594;BME280;6449;47.666;9.160;2023-04-29T18:51:18;97007.00;;;15.63;100.00
13594;BME280;6449;47.666;9.160;2023-04-29T19:21:52;97069.81;;;15.13;100.00
13594;BME280;6449;47.666;9.160;2023-04-29T19:26:46;97057.84;;;15.18;100.00
13594;BME280;6449;47.666;9.160;2023-04-29T19:31:42;97072.72;;;15.00;100.00
13594;BME280;6449;47.666;9.160;2023-04-29T19:36:37;97075.09;;;14.93;100.00
13594;BME280;6449;47.666;9.160;2023-04-29T19:41:31;97073.25;;;14.75;100.00
13594;BME280;6449;47.666;9.160;2023-04-29T19:46:26;97067.72;;;14.78;100.00
13594;BME280;6449;47.666;9.160;2023-04-29T19:51:19;97091.19;;;14.61;100.00
13594;BME280;6449;47.666;9.160;2023-04-29T19:56:13;97081.31;;;14.63;100.00
13594;BME280;6449;47.666;9.160;2023-04-29T20:42:04;97102.13;;;14.47;100.00
13594;BME280;6449;47.666;9.160;2023-04-29T20:46:57;97121.06;;;14.31;100.00
13594;BME280;6449;47.666;9.160;2023-04-29T20:51:51;97120.72;;;14.15;100.00
13594;BME280;6449;47.666;9.160;2023-04-29T20:56:44;97112.16;;;14.23;100.00
13594;BME280;6449;47.666;9.160;2023-04-29T21:01:39;97126.13;;;14.13;100.00
13594;BME280;6449;47.666;9.160;2023-04-29T21:06:33;97115.31;;;14.16;100.00
13594;BME280;6449;47.666;9.160;2023-04-29T21:11:26;97112.03;;;14.24;100.00
13594;BME280;6449;47.666;9.160;2023-04-29T21:16:22;97121.25;;;14.09;100.00
13594;BME280;6449;47.666;9.160;2023-04-29T21:41:45;97120.69;;;13.75;100.00
13594;BME280;6449;47.666;9.160;2023-04-29T21:46:39;97107.69;;;13.83;100.00
13594;BME280;6449;47.666;9.160;2023-04-29T21:51:33;97082.59;;;14.19;100.00
13594;BME280;6449;47.666;9.160;2023-04-29T21:56:27;97106.72;;;14.14;100.00
13594;BME280;6449;47.666;9.160;2023-04-29T22:01:21;97102.13;;;14.16;100.00
13594;BME280;6449;47.666;9.160;2023-04-29T22:06:30;97099.81;;;14.23;100.00
13594;BME280;6449;47.666;9.160;2023-04-29T22:11:24;97099.13;;;14.31;100.00
13594;BME280;6449;47.666;9.160;2023-04-29T22:16:17;97113.09;;;14.12;100.00
13594;BME280;6449;47.666;9.160;2023-04-29T22:21:12;97098.38;;;14.09;100.00
13594;BME280;6449;47.666;9.160;2023-04-29T22:26:05;97107.03;;;13.91;100.00
13594;BME280;6449;47.666;9.160;2023-04-29T22:30:59;97081.53;;;13.91;100.00
13594;BME280;6449;47.666;9.160;2023-04-29T22:35:52;97089.91;;;13.75;100.00
13594;BME280;6449;47.666;9.160;2023-04-29T22:40:50;97086.53;;;13.73;100.00
13594;BME280;6449;47.666;9.160;2023-04-29T22:45:50;97089.75;;;13.77;100.00
13594;BME280;6449;47.666;9.160;2023-04-29T22:50:50;97096.25;;;13.73;100.00
13594;BME280;6449;47.666;9.160;2023-04-29T22:55:50;97085.09;;;13.90;100.00
13594;BME280;6449;47.666;9.160;2023-04-29T23:00:43;97091.13;;;13.71;100.00
13594;BME280;6449;47.666;9.160;2023-04-29T23:05:37;97074.88;;;13.97;100.00
13594;BME280;6449;47.666;9.160;2023-04-29T23:10:31;97085.09;;;13.90;100.00
13594;BME280;6449;47.666;9.160;2023-04-29T23:15:27;97084.59;;;13.96;100.00
13594;BME280;6449;47.666;9.160;2023-04-29T23:40:50;97096.50;;;13.91;100.00
13594;BME280;6449;47.666;9.160;2023-04-29T23:45:44;97109.44;;;13.73;100.00
13594;BME280;6449;47.666;9.160;2023-04-29T23:50:38;97093.50;;;13.74;100.00
13594;BME280;6449;47.666;9.160;2023-04-29T23:55:32;97091.19;;;13.81;100.00
